createdAt,value
2023-01-22T00:01:13.110Z,0.09
2023-01-22T00:03:10.171Z,0.09
2023-01-22T00:05:09.337Z,0.09
2023-01-22T00:07:09.915Z,0.09
2023-01-22T00:09:09.620Z,0.09
2023-01-22T00:11:09.964Z,0.09
2023-01-22T00:13:09.196Z,0.09
2023-01-22T00:15:10.411Z,0.09
2023-01-22T00:17:10.333Z,0.09
2023-01-22T00:19:08.878Z,0.09
2023-01-22T00:21:09.420Z,0.09
2023-01-22T00:23:09.075Z,0.09
2023-01-22T00:25:09.334Z,0.09
2023-01-22T00:27:09.015Z,0.09
2023-01-22T00:29:09.609Z,0.09
2023-01-22T00:31:09.220Z,0.09
2023-01-22T00:33:10.170Z,0.09
2023-01-22T00:35:09.319Z,0.09
2023-01-22T00:37:09.938Z,0.09
2023-01-22T00:39:09.476Z,0.09
2023-01-22T00:41:08.887Z,0.09
2023-01-22T00:43:09.547Z,0.09
2023-01-22T00:45:09.225Z,0.09
2023-01-22T00:47:09.996Z,0.09
2023-01-22T00:49:09.142Z,0.09
2023-01-22T00:51:10.142Z,0.09
2023-01-22T00:53:09.337Z,0.09
2023-01-22T00:55:09.744Z,0.09
2023-01-22T00:57:09.301Z,0.09
2023-01-22T00:59:10.138Z,0.09
2023-01-22T01:01:13.195Z,0.09
2023-01-22T01:03:09.144Z,0.09
2023-01-22T01:05:09.565Z,0.09
2023-01-22T01:07:09.257Z,0.09
2023-01-22T01:09:09.719Z,0.09
2023-01-22T01:11:09.265Z,0.09
2023-01-22T01:13:08.803Z,0.09
2023-01-22T01:15:09.387Z,0.09
2023-01-22T01:17:10.392Z,0.09
2023-01-22T01:19:09.588Z,0.09
2023-01-22T01:21:08.998Z,0.09
2023-01-22T01:23:09.436Z,0.09
2023-01-22T01:25:08.901Z,0.09
2023-01-22T01:27:09.404Z,0.09
2023-01-22T01:29:10.066Z,0.09
2023-01-22T01:31:09.992Z,0.09
2023-01-22T01:33:09.229Z,0.09
2023-01-22T01:35:09.395Z,0.09
2023-01-22T01:37:32.636Z,0.09
2023-01-22T01:39:09.610Z,0.09
2023-01-22T01:41:09.157Z,0.09
2023-01-22T01:43:09.780Z,0.09
2023-01-22T01:45:09.476Z,0.09
2023-01-22T01:47:10.409Z,0.09
2023-01-22T01:49:09.320Z,0.09
2023-01-22T01:51:10.205Z,0.09
2023-01-22T01:53:09.647Z,0.09
2023-01-22T01:55:09.000Z,0.09
2023-01-22T01:57:09.571Z,0.09
2023-01-22T01:59:09.013Z,0.09
2023-01-22T02:01:17.223Z,0.09
2023-01-22T02:03:09.701Z,0.09
2023-01-22T02:05:08.891Z,0.09
2023-01-22T02:07:09.563Z,0.09
2023-01-22T02:09:09.041Z,0.09
2023-01-22T02:11:09.567Z,0.09
2023-01-22T02:13:09.155Z,0.09
2023-01-22T02:15:09.743Z,0.09
2023-01-22T02:17:09.384Z,0.09
2023-01-22T02:19:09.566Z,0.09
2023-01-22T02:21:09.279Z,0.09
2023-01-22T02:23:09.695Z,0.09
2023-01-22T02:25:09.128Z,0.09
2023-01-22T02:27:09.610Z,0.09
2023-01-22T02:29:09.195Z,0.09
2023-01-22T02:31:10.097Z,0.09
2023-01-22T02:33:09.083Z,0.09
2023-01-22T02:35:09.792Z,0.09
2023-01-22T02:37:09.237Z,0.09
2023-01-22T02:39:09.695Z,0.09
2023-01-22T02:41:09.261Z,0.09
2023-01-22T02:43:09.010Z,0.09
2023-01-22T02:45:09.423Z,0.09
2023-01-22T02:47:09.670Z,0.09
2023-01-22T02:49:09.126Z,0.09
2023-01-22T02:51:10.009Z,0.09
2023-01-22T02:53:09.221Z,0.09
2023-01-22T02:55:09.624Z,0.09
2023-01-22T02:57:09.220Z,0.09
2023-01-22T02:59:08.927Z,0.09
2023-01-22T03:01:13.062Z,0.09
2023-01-22T03:03:09.814Z,0.09
2023-01-22T03:05:09.323Z,0.09
2023-01-22T03:07:09.799Z,0.09
2023-01-22T03:09:09.442Z,0.09
2023-01-22T03:11:08.790Z,0.09
2023-01-22T03:13:09.361Z,0.09
2023-01-22T03:15:09.037Z,0.09
2023-01-22T03:17:09.637Z,0.09
2023-01-22T03:19:08.994Z,0.09
2023-01-22T03:21:09.679Z,0.09
2023-01-22T03:23:09.427Z,0.09
2023-01-22T03:25:09.463Z,0.09
2023-01-22T03:27:09.325Z,0.09
2023-01-22T03:29:09.006Z,0.09
2023-01-22T03:31:09.708Z,0.09
2023-01-22T03:33:09.405Z,0.09
2023-01-22T03:35:09.685Z,0.09
2023-01-22T03:37:09.239Z,0.09
2023-01-22T03:39:09.649Z,0.09
2023-01-22T03:41:09.192Z,0.09
2023-01-22T03:43:09.847Z,0.09
2023-01-22T03:45:09.354Z,0.09
2023-01-22T03:47:09.879Z,0.09
2023-01-22T03:49:09.203Z,0.09
2023-01-22T03:51:09.325Z,0.09
2023-01-22T03:53:09.244Z,0.09
2023-01-22T03:55:09.768Z,0.09
2023-01-22T03:57:09.626Z,0.09
2023-01-22T03:59:09.877Z,0.09
2023-01-22T04:01:13.566Z,0.09
2023-01-22T04:03:09.909Z,0.09
2023-01-22T04:05:09.225Z,0.09
2023-01-22T04:07:09.790Z,0.09
2023-01-22T04:09:09.203Z,0.09
2023-01-22T04:11:09.806Z,0.09
2023-01-22T04:13:09.351Z,0.09
2023-01-22T04:15:09.893Z,0.09
2023-01-22T04:17:09.727Z,0.09
2023-01-22T04:19:09.821Z,0.09
2023-01-22T04:21:09.428Z,0.09
2023-01-22T04:23:08.906Z,0.09
2023-01-22T04:25:09.459Z,0.09
2023-01-22T04:27:08.979Z,0.09
2023-01-22T04:29:09.595Z,0.09
2023-01-22T04:31:09.818Z,0.09
2023-01-22T04:33:09.509Z,0.09
2023-01-22T04:35:09.086Z,0.09
2023-01-22T04:37:09.705Z,0.09
2023-01-22T04:39:08.885Z,0.09
2023-01-22T04:41:09.347Z,0.09
2023-01-22T04:43:09.823Z,0.09
2023-01-22T04:45:09.167Z,0.09
2023-01-22T04:47:10.134Z,0.09
2023-01-22T04:49:09.122Z,0.09
2023-01-22T04:51:10.163Z,0.09
2023-01-22T04:53:09.249Z,0.09
2023-01-22T04:55:09.933Z,0.09
2023-01-22T04:57:09.208Z,0.09
2023-01-22T04:59:09.609Z,0.09
2023-01-22T05:01:15.269Z,0.09
2023-01-22T05:03:09.471Z,0.09
2023-01-22T05:05:09.626Z,0.09
2023-01-22T05:07:08.968Z,0.09
2023-01-22T05:09:09.469Z,0.09
2023-01-22T05:11:08.951Z,0.09
2023-01-22T05:13:09.621Z,0.09
2023-01-22T05:15:22.521Z,0.09
2023-01-22T05:17:09.649Z,0.09
2023-01-22T05:19:09.877Z,0.09
2023-01-22T05:21:09.287Z,0.09
2023-01-22T05:23:09.814Z,0.09
2023-01-22T05:25:09.479Z,0.09
2023-01-22T05:27:09.676Z,0.09
2023-01-22T05:29:08.995Z,0.09
2023-01-22T05:31:10.259Z,0.09
2023-01-22T05:33:11.296Z,0.09
2023-01-22T05:35:09.590Z,0.09
2023-01-22T05:37:09.098Z,0.09
2023-01-22T05:39:09.436Z,0.09
2023-01-22T05:41:08.947Z,0.09
2023-01-22T05:43:09.570Z,0.09
2023-01-22T05:45:09.029Z,0.09
2023-01-22T05:47:09.647Z,0.09
2023-01-22T05:49:10.027Z,0.09
2023-01-22T05:51:09.732Z,0.09
2023-01-22T05:53:09.807Z,0.09
2023-01-22T05:55:09.436Z,0.09
2023-01-22T05:57:09.832Z,0.09
2023-01-22T05:59:09.564Z,0.09
2023-01-22T06:01:14.305Z,0.09
2023-01-22T06:03:09.875Z,0.09
2023-01-22T06:05:09.297Z,0.09
2023-01-22T06:07:09.404Z,0.09
2023-01-22T06:09:09.672Z,0.09
2023-01-22T06:11:09.389Z,0.09
2023-01-22T06:13:09.904Z,0.09
2023-01-22T06:15:09.624Z,0.09
2023-01-22T06:17:09.783Z,0.09
2023-01-22T06:19:09.196Z,0.09
2023-01-22T06:21:09.812Z,0.09
2023-01-22T06:23:09.174Z,0.09
2023-01-22T06:25:09.757Z,0.09
2023-01-22T06:27:09.222Z,0.09
2023-01-22T06:29:09.633Z,0.09
2023-01-22T06:31:09.363Z,0.09
2023-01-22T06:33:09.345Z,0.09
2023-01-22T06:35:08.981Z,0.09
2023-01-22T06:37:09.492Z,0.09
2023-01-22T06:39:09.100Z,0.09
2023-01-22T06:41:09.722Z,0.09
2023-01-22T06:43:10.714Z,0.09
2023-01-22T06:45:09.689Z,0.09
2023-01-22T06:47:09.488Z,0.09
2023-01-22T06:49:12.459Z,0.09
2023-01-22T06:51:09.553Z,0.09
2023-01-22T06:53:09.781Z,0.09
2023-01-22T06:55:09.449Z,0.09
2023-01-22T06:57:09.066Z,0.09
2023-01-22T06:59:09.563Z,0.09
2023-01-22T07:01:12.029Z,0.09
2023-01-22T07:03:09.438Z,0.09
2023-01-22T07:05:09.110Z,0.09
2023-01-22T07:07:09.234Z,0.09
2023-01-22T07:09:09.397Z,0.09
2023-01-22T07:11:09.055Z,0.09
2023-01-22T07:13:09.810Z,0.09
2023-01-22T07:15:22.362Z,0.09
2023-01-22T07:17:09.175Z,0.09
2023-01-22T07:19:09.579Z,0.09
2023-01-22T07:21:09.154Z,0.09
2023-01-22T07:23:11.108Z,0.09
2023-01-22T07:25:09.080Z,0.09
2023-01-22T07:27:09.759Z,0.09
2023-01-22T07:29:09.453Z,0.09
2023-01-22T07:31:10.213Z,0.09
2023-01-22T07:33:09.194Z,0.09
2023-01-22T07:35:09.014Z,0.09
2023-01-22T07:37:09.498Z,0.09
2023-01-22T07:39:08.943Z,0.09
2023-01-22T07:41:24.854Z,0.09
2023-01-22T07:43:12.440Z,0.09
2023-01-22T07:45:09.490Z,0.09
2023-01-22T07:47:09.317Z,0.09
2023-01-22T07:49:09.802Z,0.09
2023-01-22T07:51:09.557Z,0.09
2023-01-22T07:53:09.813Z,0.09
2023-01-22T07:55:09.174Z,0.09
2023-01-22T07:57:09.903Z,0.09
2023-01-22T07:59:09.321Z,0.09
2023-01-22T08:01:11.935Z,0.09
2023-01-22T08:03:11.401Z,0.09
2023-01-22T08:05:09.457Z,0.09
2023-01-22T08:07:09.010Z,0.09
2023-01-22T08:09:09.351Z,0.09
2023-01-22T08:11:09.213Z,0.09
2023-01-22T08:13:09.597Z,0.09
2023-01-22T08:15:08.923Z,0.09
2023-01-22T08:17:10.059Z,0.09
2023-01-22T08:19:09.893Z,0.09
2023-01-22T08:21:09.499Z,0.09
2023-01-22T08:23:09.703Z,0.09
2023-01-22T08:25:09.329Z,0.09
2023-01-22T08:27:09.867Z,0.09
2023-01-22T08:29:09.316Z,0.09
2023-01-22T08:31:34.311Z,0.09
2023-01-22T08:33:09.932Z,0.09
2023-01-22T08:35:08.970Z,0.09
2023-01-22T08:37:09.427Z,0.09
2023-01-22T08:39:09.041Z,0.09
2023-01-22T08:41:11.949Z,0.09
2023-01-22T08:43:09.391Z,0.09
2023-01-22T08:45:09.665Z,0.09
2023-01-22T08:47:09.279Z,0.09
2023-01-22T08:49:09.866Z,0.09
2023-01-22T08:51:09.575Z,0.09
2023-01-22T08:53:09.667Z,0.09
2023-01-22T08:55:09.347Z,0.09
2023-01-22T08:57:09.845Z,0.09
2023-01-22T08:59:09.150Z,0.09
2023-01-22T09:01:13.508Z,0.09
2023-01-22T09:03:09.443Z,0.09
2023-01-22T09:05:09.711Z,0.09
2023-01-22T09:07:09.197Z,0.09
2023-01-22T09:09:09.750Z,0.09
2023-01-22T09:11:10.054Z,0.09
2023-01-22T09:13:09.845Z,0.09
2023-01-22T09:15:09.125Z,0.09
2023-01-22T09:17:09.329Z,0.09
2023-01-22T09:19:09.524Z,0.09
2023-01-22T09:21:09.094Z,0.09
2023-01-22T09:23:09.588Z,0.09
2023-01-22T09:25:09.170Z,0.09
2023-01-22T09:27:09.853Z,0.09
2023-01-22T09:29:10.034Z,0.09
2023-01-22T09:31:09.795Z,0.09
2023-01-22T09:33:09.257Z,0.09
2023-01-22T09:35:09.467Z,0.09
2023-01-22T09:37:08.804Z,0.09
2023-01-22T09:39:09.381Z,0.09
2023-01-22T09:41:10.209Z,0.09
2023-01-22T09:43:09.638Z,0.09
2023-01-22T09:45:09.058Z,0.09
2023-01-22T09:47:09.800Z,0.09
2023-01-22T09:49:09.281Z,0.09
2023-01-22T09:51:09.698Z,0.09
2023-01-22T09:53:11.743Z,0.21
2023-01-22T09:55:09.387Z,0.21
2023-01-22T09:57:09.557Z,0.21
2023-01-22T09:59:09.239Z,0.21
2023-01-22T10:01:12.391Z,0.21
2023-01-22T10:03:09.482Z,0.21
2023-01-22T10:05:09.586Z,0.21
2023-01-22T10:07:09.149Z,0.21
2023-01-22T10:09:09.519Z,0.21
2023-01-22T10:11:09.242Z,0.21
2023-01-22T10:13:09.571Z,0.21
2023-01-22T10:15:08.991Z,0.21
2023-01-22T10:17:10.188Z,0.21
2023-01-22T10:19:09.152Z,0.21
2023-01-22T10:21:09.572Z,0.21
2023-01-22T10:23:09.215Z,0.21
2023-01-22T10:25:09.902Z,0.21
2023-01-22T10:27:11.527Z,0.21
2023-01-22T10:29:09.711Z,0.21
2023-01-22T10:31:09.798Z,0.21
2023-01-22T10:33:11.647Z,0.21
2023-01-22T10:35:09.697Z,0.21
2023-01-22T10:37:09.073Z,0.21
2023-01-22T10:39:12.788Z,0.21
2023-01-22T10:41:09.288Z,0.21
2023-01-22T10:43:09.710Z,0.21
2023-01-22T10:45:09.234Z,0.21
2023-01-22T10:47:10.074Z,0.21
2023-01-22T10:49:09.263Z,0.21
2023-01-22T10:51:12.540Z,0.21
2023-01-22T10:53:09.184Z,0.21
2023-01-22T10:55:10.078Z,0.21
2023-01-22T10:57:09.841Z,0.21
2023-01-22T10:59:10.186Z,13.01
2023-01-22T11:01:26.104Z,13.01
2023-01-22T11:03:09.224Z,13.01
2023-01-22T11:05:09.587Z,13.01
2023-01-22T11:07:08.945Z,13.01
2023-01-22T11:09:09.573Z,13.01
2023-01-22T11:11:09.303Z,13.01
2023-01-22T11:13:10.979Z,13.01
2023-01-22T11:15:09.278Z,13.01
2023-01-22T11:17:09.896Z,13.01
2023-01-22T11:19:09.414Z,13.01
2023-01-22T11:21:09.672Z,13.01
2023-01-22T11:23:09.297Z,13.01
2023-01-22T11:25:10.101Z,13.01
2023-01-22T11:27:09.268Z,13.01
2023-01-22T11:29:09.651Z,13.01
2023-01-22T11:31:10.416Z,13.01
2023-01-22T11:33:09.920Z,13.01
2023-01-22T11:35:09.232Z,13.01
2023-01-22T11:37:09.651Z,13.01
2023-01-22T11:39:09.309Z,13.01
2023-01-22T11:41:09.819Z,13.01
2023-01-22T11:43:09.236Z,13.01
2023-01-22T11:45:09.936Z,13.01
2023-01-22T11:47:09.855Z,13.01
2023-01-22T11:49:09.958Z,13.01
2023-01-22T11:51:09.695Z,13.01
2023-01-22T11:53:09.062Z,13.01
2023-01-22T11:55:09.510Z,13.01
2023-01-22T11:57:09.091Z,13.01
2023-01-22T11:59:09.571Z,13.01
2023-01-22T12:01:15.460Z,13.01
2023-01-22T12:03:09.763Z,13.01
2023-01-22T12:05:10.177Z,13.01
2023-01-22T12:07:09.344Z,11.19
2023-01-22T12:09:09.860Z,11.19
2023-01-22T12:11:09.401Z,11.19
2023-01-22T12:13:09.588Z,0.04
2023-01-22T12:15:09.269Z,0.04
2023-01-22T12:17:13.519Z,0.02
2023-01-22T12:19:09.236Z,0.02
2023-01-22T12:21:09.776Z,0.02
2023-01-22T12:23:09.180Z,0.02
2023-01-22T12:25:09.727Z,0.02
2023-01-22T12:27:10.211Z,0.02
2023-01-22T12:29:09.530Z,0.02
2023-01-22T12:31:09.644Z,0.02
2023-01-22T12:33:09.576Z,1.28
2023-01-22T12:35:09.002Z,1.28
2023-01-22T12:37:09.647Z,1.28
2023-01-22T12:39:09.174Z,0.01
2023-01-22T12:41:09.692Z,0.01
2023-01-22T12:43:09.025Z,0.01
2023-01-22T12:45:09.625Z,1.1
2023-01-22T12:47:09.310Z,1.1
2023-01-22T12:49:09.390Z,0.01
2023-01-22T12:51:12.602Z,0.01
2023-01-22T12:53:09.839Z,0.01
2023-01-22T12:55:09.041Z,0.01
2023-01-22T12:57:09.549Z,1.02
2023-01-22T12:59:09.341Z,1.02
2023-01-22T13:01:12.359Z,1.02
2023-01-22T13:03:09.451Z,0.97
2023-01-22T13:05:09.690Z,0.97
2023-01-22T13:07:11.860Z,0.97
2023-01-22T13:09:10.109Z,0.95
2023-01-22T13:11:09.483Z,0.95
2023-01-22T13:13:09.853Z,0.95
2023-01-22T13:15:22.705Z,0.01
2023-01-22T13:17:09.287Z,0.01
2023-01-22T13:19:15.356Z,0.01
2023-01-22T13:21:09.180Z,0.91
2023-01-22T13:23:09.743Z,0.91
2023-01-22T13:25:08.996Z,0.91
2023-01-22T13:27:09.677Z,0.89
2023-01-22T13:29:09.265Z,0.89
2023-01-22T13:31:10.122Z,0.89
2023-01-22T13:33:09.334Z,0.01
2023-01-22T13:35:09.534Z,0.01
2023-01-22T13:37:09.151Z,0.01
2023-01-22T13:39:09.488Z,0.01
2023-01-22T13:41:24.939Z,0.01
2023-01-22T13:43:09.401Z,0.01
2023-01-22T13:45:09.125Z,0.01
2023-01-22T13:47:09.987Z,0.01
2023-01-22T13:49:11.523Z,0.01
2023-01-22T13:51:09.913Z,0.01
2023-01-22T13:53:09.279Z,0.01
2023-01-22T13:55:09.521Z,0.01
2023-01-22T13:57:09.195Z,0.01
2023-01-22T13:59:22.379Z,0.01
2023-01-22T14:01:14.988Z,0.01
2023-01-22T14:03:09.768Z,0.01
2023-01-22T14:05:09.104Z,0.01
2023-01-22T14:07:09.432Z,0.01
2023-01-22T14:09:09.226Z,0.01
2023-01-22T14:11:09.728Z,0.01
2023-01-22T14:13:09.266Z,0.01
2023-01-22T14:15:09.940Z,0.01
2023-01-22T14:17:09.604Z,0.01
2023-01-22T14:19:09.804Z,0.01
2023-01-22T14:21:09.516Z,0.01
2023-01-22T14:23:09.896Z,0.01
2023-01-22T14:25:09.257Z,0.01
2023-01-22T14:27:08.888Z,0.01
2023-01-22T14:29:09.595Z,0.01
2023-01-22T14:31:09.762Z,0.01
2023-01-22T14:33:09.631Z,0.01
2023-01-22T14:35:09.199Z,0.01
2023-01-22T14:37:09.713Z,0.01
2023-01-22T14:39:09.317Z,0.01
2023-01-22T14:41:09.995Z,0.01
2023-01-22T14:43:09.368Z,0.01
2023-01-22T14:45:09.963Z,0.01
2023-01-22T14:47:09.339Z,0.01
2023-01-22T14:49:08.939Z,0.01
2023-01-22T14:51:10.138Z,0.01
2023-01-22T14:53:09.436Z,0.01
2023-01-22T14:55:08.966Z,0.01
2023-01-22T14:57:09.508Z,0.01
2023-01-22T14:59:09.042Z,0.01
2023-01-22T15:01:14.183Z,0.01
2023-01-22T15:03:10.050Z,0.01
2023-01-22T15:05:09.261Z,0.01
2023-01-22T15:07:09.739Z,0.01
2023-01-22T15:09:09.187Z,0.01
2023-01-22T15:11:09.723Z,0.01
2023-01-22T15:13:09.190Z,0.01
2023-01-22T15:15:13.015Z,0.01
2023-01-22T15:17:09.256Z,0.01
2023-01-22T15:19:09.361Z,0.01
2023-01-22T15:21:09.086Z,0.01
2023-01-22T15:23:09.700Z,0.01
2023-01-22T15:25:11.898Z,0.01
2023-01-22T15:27:09.693Z,0.01
2023-01-22T15:29:09.321Z,0.01
2023-01-22T15:31:10.050Z,0.01
2023-01-22T15:33:09.090Z,0.01
2023-01-22T15:35:09.786Z,0.01
2023-01-22T15:37:09.136Z,0.01
2023-01-22T15:39:09.598Z,0.01
2023-01-22T15:41:09.223Z,0.01
2023-01-22T15:43:09.736Z,0.01
2023-01-22T15:45:09.182Z,0.01
2023-01-22T15:47:09.849Z,0.01
2023-01-22T15:49:11.898Z,0.01
2023-01-22T15:51:09.950Z,0.01
2023-01-22T15:53:09.134Z,0.01
2023-01-22T15:55:11.001Z,0.01
2023-01-22T15:57:09.162Z,0.01
2023-01-22T15:59:09.834Z,0.01
2023-01-22T16:01:12.280Z,0.01
2023-01-22T16:03:09.959Z,0.01
2023-01-22T16:05:09.218Z,0.01
2023-01-22T16:07:09.746Z,0.01
2023-01-22T16:09:09.184Z,0.01
2023-01-22T16:11:09.823Z,0.01
2023-01-22T16:13:09.314Z,0.01
2023-01-22T16:15:09.677Z,0.01
2023-01-22T16:17:09.425Z,0.01
2023-01-22T16:19:09.733Z,0.01
2023-01-22T16:21:08.907Z,0.01
2023-01-22T16:23:09.219Z,0.01
2023-01-22T16:25:09.882Z,0.01
2023-01-22T16:27:09.124Z,0.01
2023-01-22T16:29:09.528Z,0.01
2023-01-22T16:31:09.777Z,0.01
2023-01-22T16:33:09.692Z,0.01
2023-01-22T16:35:09.098Z,0.01
2023-01-22T16:37:09.366Z,0.01
2023-01-22T16:39:09.816Z,0.01
2023-01-22T16:41:09.458Z,0.01
2023-01-22T16:43:09.540Z,0.01
2023-01-22T16:45:08.877Z,0.01
2023-01-22T16:47:09.949Z,0.01
2023-01-22T16:49:09.240Z,0.01
2023-01-22T16:51:09.352Z,0.01
2023-01-22T16:53:29.437Z,0.01
2023-01-22T16:55:09.216Z,0.01
2023-01-22T16:57:09.710Z,0.01
2023-01-22T16:59:09.100Z,0.01
2023-01-22T17:01:12.818Z,0.01
2023-01-22T17:03:10.007Z,0.01
2023-01-22T17:05:09.267Z,0.01
2023-01-22T17:07:10.839Z,0.01
2023-01-22T17:09:09.076Z,0.01
2023-01-22T17:11:09.594Z,0.01
2023-01-22T17:13:09.197Z,0.01
2023-01-22T17:15:09.677Z,0.01
2023-01-22T17:17:09.120Z,0.01
2023-01-22T17:19:09.521Z,0.01
2023-01-22T17:21:24.510Z,0.01
2023-01-22T17:23:09.375Z,0.01
2023-01-22T17:25:09.063Z,0.01
2023-01-22T17:27:10.749Z,0.01
2023-01-22T17:29:08.893Z,0.01
2023-01-22T17:31:10.161Z,0.01
2023-01-22T17:33:14.298Z,0.01
2023-01-22T17:35:09.497Z,0.01
2023-01-22T17:37:08.921Z,0.01
2023-01-22T17:39:12.856Z,0.01
2023-01-22T17:41:09.852Z,0.01
2023-01-22T17:43:09.290Z,0.01
2023-01-22T17:45:09.156Z,0.01
2023-01-22T17:47:09.838Z,0.01
2023-01-22T17:49:09.814Z,0.01
2023-01-22T17:51:09.453Z,0.01
2023-01-22T17:53:09.951Z,0.01
2023-01-22T17:55:09.675Z,0.01
2023-01-22T17:57:09.956Z,0.01
2023-01-22T17:59:09.306Z,0.01
2023-01-22T18:01:12.249Z,0.01
2023-01-22T18:03:09.702Z,0.01
2023-01-22T18:05:15.990Z,0.01
2023-01-22T18:07:09.041Z,0.01
2023-01-22T18:09:09.817Z,0.01
2023-01-22T18:11:09.414Z,0.01
2023-01-22T18:13:09.775Z,0.01
2023-01-22T18:15:09.424Z,0.01
2023-01-22T18:17:10.116Z,0.01
2023-01-22T18:19:09.660Z,0.01
2023-01-22T18:21:09.904Z,0.01
2023-01-22T18:23:09.488Z,0.01
2023-01-22T18:25:10.130Z,0.01
2023-01-22T18:27:09.543Z,0.01
2023-01-22T18:29:09.591Z,0.01
2023-01-22T18:31:09.949Z,0.01
2023-01-22T18:33:09.749Z,0.01
2023-01-22T18:35:08.962Z,0.01
2023-01-22T18:37:09.560Z,0.01
2023-01-22T18:39:09.172Z,0.01
2023-01-22T18:41:09.560Z,0.01
2023-01-22T18:43:09.053Z,0.01
2023-01-22T18:45:09.580Z,0.01
2023-01-22T18:47:09.631Z,0.01
2023-01-22T18:49:09.464Z,0.01
2023-01-22T18:51:09.250Z,0.01
2023-01-22T18:53:09.573Z,0.01
2023-01-22T18:55:08.957Z,0.01
2023-01-22T18:57:09.333Z,0.01
2023-01-22T18:59:09.914Z,0.01
2023-01-22T19:01:13.068Z,0.01
2023-01-22T19:03:10.156Z,0.01
2023-01-22T19:05:09.084Z,0.01
2023-01-22T19:07:11.046Z,0.01
2023-01-22T19:09:09.123Z,0.01
2023-01-22T19:11:09.654Z,0.01
2023-01-22T19:13:08.948Z,0.01
2023-01-22T19:15:09.467Z,0.01
2023-01-22T19:17:09.291Z,0.01
2023-01-22T19:19:09.650Z,0.01
2023-01-22T19:21:09.009Z,0.01
2023-01-22T19:23:09.587Z,0.01
2023-01-22T19:25:09.154Z,0.01
2023-01-22T19:27:09.725Z,0.01
2023-01-22T19:29:08.919Z,0.01
2023-01-22T19:31:09.998Z,0.01
2023-01-22T19:33:09.399Z,0.01
2023-01-22T19:35:09.816Z,0.01
2023-01-22T19:37:11.376Z,0.01
2023-01-22T19:39:09.797Z,0.01
2023-01-22T19:41:09.256Z,0.01
2023-01-22T19:43:09.846Z,0.01
2023-01-22T19:45:09.307Z,0.01
2023-01-22T19:47:10.176Z,0.01
2023-01-22T19:49:09.243Z,0.01
2023-01-22T19:51:09.046Z,0.01
2023-01-22T19:53:09.413Z,0.01
2023-01-22T19:55:09.030Z,0.01
2023-01-22T19:57:09.435Z,0.01
2023-01-22T19:59:09.063Z,0.01
2023-01-22T20:01:12.761Z,0.01
2023-01-22T20:03:10.112Z,0.01
2023-01-22T20:05:09.221Z,0.01
2023-01-22T20:07:09.832Z,0.01
2023-01-22T20:09:09.402Z,0.01
2023-01-22T20:11:09.003Z,0.01
2023-01-22T20:13:09.369Z,0.01
2023-01-22T20:15:08.898Z,0.01
2023-01-22T20:17:09.950Z,0.01
2023-01-22T20:19:09.173Z,0.01
2023-01-22T20:21:09.640Z,0.01
2023-01-22T20:23:09.132Z,0.01
2023-01-22T20:25:09.939Z,0.01
2023-01-22T20:27:09.414Z,0.01
2023-01-22T20:29:09.806Z,0.01
2023-01-22T20:31:09.691Z,0.01
2023-01-22T20:33:09.112Z,0.01
2023-01-22T20:35:09.410Z,0.01
2023-01-22T20:37:08.872Z,0.01
2023-01-22T20:39:09.653Z,0.01
2023-01-22T20:41:09.098Z,0.01
2023-01-22T20:43:09.625Z,0.01
2023-01-22T20:45:09.087Z,0.01
2023-01-22T20:47:09.750Z,0.01
2023-01-22T20:49:09.002Z,0.01
2023-01-22T20:51:10.708Z,0.01
2023-01-22T20:53:09.845Z,0.01
2023-01-22T20:55:25.354Z,0.01
2023-01-22T20:57:09.945Z,0.01
2023-01-22T20:59:09.295Z,0.01
2023-01-22T21:01:13.915Z,0.01
2023-01-22T21:03:09.585Z,0.01
2023-01-22T21:05:09.802Z,0.01
2023-01-22T21:07:10.677Z,0.01
2023-01-22T21:09:09.854Z,0.01
2023-01-22T21:11:09.307Z,0.01
2023-01-22T21:13:09.727Z,0.01
2023-01-22T21:15:09.304Z,0.01
2023-01-22T21:17:10.306Z,0.01
2023-01-22T21:19:09.671Z,0.01
2023-01-22T21:21:08.789Z,0.01
2023-01-22T21:23:09.345Z,0.01
2023-01-22T21:25:09.846Z,0.01
2023-01-22T21:27:09.299Z,0.01
2023-01-22T21:29:09.904Z,0.01
2023-01-22T21:31:09.786Z,0.01
2023-01-22T21:33:09.096Z,0.01
2023-01-22T21:35:09.458Z,0.01
2023-01-22T21:37:08.825Z,0.01
2023-01-22T21:39:09.581Z,0.01
2023-01-22T21:41:09.386Z,0.01
2023-01-22T21:43:09.857Z,0.01
2023-01-22T21:45:09.294Z,0.01
2023-01-22T21:47:09.069Z,0.01
2023-01-22T21:49:09.730Z,0.01
2023-01-22T21:51:09.302Z,0.01
2023-01-22T21:53:11.714Z,0.01
2023-01-22T21:55:09.486Z,0.01
2023-01-22T21:57:08.938Z,0.01
2023-01-22T21:59:09.404Z,0.01
2023-01-22T22:01:09.354Z,0.01
2023-01-22T22:03:09.403Z,0.01
2023-01-22T22:05:09.400Z,0.01
2023-01-22T22:07:10.145Z,0.01
2023-01-22T22:09:09.634Z,0.01
2023-01-22T22:11:09.231Z,0.01
2023-01-22T22:13:09.583Z,0.01
2023-01-22T22:15:09.088Z,0.01
2023-01-22T22:17:10.123Z,0.01
2023-01-22T22:19:09.217Z,0.01
2023-01-22T22:21:09.839Z,0.01
2023-01-22T22:23:09.318Z,0.01
2023-01-22T22:25:08.875Z,0.01
2023-01-22T22:27:09.529Z,0.01
2023-01-22T22:29:08.942Z,0.01
2023-01-22T22:31:09.959Z,0.01
2023-01-22T22:33:09.352Z,0.01
2023-01-22T22:35:09.738Z,0.01
2023-01-22T22:37:09.220Z,0.01
2023-01-22T22:39:09.788Z,0.01
2023-01-22T22:41:11.368Z,0.01
2023-01-22T22:43:09.631Z,0.01
2023-01-22T22:45:09.088Z,0.01
2023-01-22T22:47:09.749Z,0.01
2023-01-22T22:49:11.620Z,0.01
2023-01-22T22:51:09.729Z,0.01
2023-01-22T22:53:09.181Z,0.01
2023-01-22T22:55:09.678Z,0.01
2023-01-22T22:57:09.206Z,0.01
2023-01-22T22:59:09.630Z,0.01
2023-01-22T23:01:09.659Z,0.01
2023-01-22T23:03:09.609Z,0.01
2023-01-22T23:05:09.928Z,0.01
2023-01-22T23:07:09.618Z,0.01
2023-01-22T23:09:09.156Z,0.01
2023-01-22T23:11:09.773Z,0.01
2023-01-22T23:13:09.213Z,0.01
2023-01-22T23:15:09.754Z,0.01
2023-01-22T23:17:09.768Z,0.01
2023-01-22T23:19:08.874Z,0.01
2023-01-22T23:21:09.465Z,0.01
2023-01-22T23:23:09.290Z,0.01
2023-01-22T23:25:09.671Z,0.01
2023-01-22T23:27:09.222Z,0.01
2023-01-22T23:29:09.743Z,0.01
2023-01-22T23:31:10.035Z,0.01
2023-01-22T23:33:10.019Z,0.01
2023-01-22T23:35:09.281Z,0.01
2023-01-22T23:37:09.883Z,0.01
2023-01-22T23:39:09.372Z,0.01
2023-01-22T23:41:09.898Z,0.01
2023-01-22T23:43:09.480Z,0.01
2023-01-22T23:45:10.885Z,0.01
2023-01-22T23:47:10.059Z,0.01
2023-01-22T23:49:09.091Z,0.01
2023-01-22T23:51:09.903Z,0.01
2023-01-22T23:53:09.490Z,0.01
2023-01-22T23:55:10.063Z,0.01
2023-01-22T23:57:09.278Z,0.01
2023-01-22T23:59:09.938Z,0.01
